»·PEaware :: N973BB KNOW-KOTH

N973BB :: KNOW-KOTH

FLIGHT INFORMATION

Flight Status: Arrived
Operator: Privately registered:
United States
More flights under this callsign
Pilot: Phil H. (1072)
Aircraft: MITSUBISHI MU-2 MARQUISE
(MU2)
More flights by this aircraft type
Origin: KNOW Port Angeles Cgas
United States
Destination: KOTH North Bend Mun
United States
More flights between these airports :: More routes between these airports
Route: DIRECT
File this flight plan on PilotEdge
Remarks:
Altitude:
(Current/Filed)
15,500ft
Speed:
(Current/Filed)
250kts
Departed: 08-Jan-18 07:41 PM
Arrived: 08-Jan-18 09:08 PM
Distance/Time
Traveled:
286nm/1:27
Distance/Time
To Go:
Arrived

Flight Plot

Page will automatically refresh every two minutes.

Flight plan parsing failed; only flown route is shown


Map Options




Map Legend


Flown Route
Filed Route
Departure Airport
Arrival Airport
Navaid (VOR, NDB)
Fix

Horizontal Profiles

Position Reports

Time Latitude Longitude Heading Altitude Ground
Speed
08-Jan-18 19:46 48.007886 -123.499125 172 8447ft 169kts
08-Jan-18 19:47 47.963945 -123.484236 176 10763ft 160kts
08-Jan-18 19:48 47.922758 -123.473604 177 13050ft 149kts
08-Jan-18 19:49 47.884135 -123.465286 180 15185ft 145kts
08-Jan-18 19:50 47.834203 -123.459284 181 15528ft 223kts
08-Jan-18 19:51 47.777921 -123.479116 195 15522ft 253kts
08-Jan-18 19:52 47.709865 -123.495920 190 15522ft 267kts
08-Jan-18 19:53 47.635386 -123.510248 190 15518ft 272kts
08-Jan-18 19:54 47.560209 -123.524410 190 15509ft 274kts
08-Jan-18 19:55 47.484684 -123.538573 190 15502ft 274kts
08-Jan-18 19:56 47.410364 -123.552495 190 15501ft 274kts
08-Jan-18 20:03 48.140312 -123.408430 191 4ft 3kts
08-Jan-18 20:04 48.140517 -123.407839 355 4ft 0kts
08-Jan-18 20:05 48.141547 -123.421861 273 20ft 137kts
08-Jan-18 20:06 48.117664 -123.453042 161 2354ft 161kts
08-Jan-18 20:07 48.077655 -123.431904 173 4957ft 153kts
08-Jan-18 20:08 48.035506 -123.430881 189 7372ft 154kts
08-Jan-18 20:09 47.998388 -123.436380 193 9695ft 148kts
08-Jan-18 20:10 47.959932 -123.443540 191 12305ft 137kts
08-Jan-18 20:11 47.923722 -123.450334 192 14752ft 132kts
08-Jan-18 20:12 47.881458 -123.458590 190 15509ft 206kts
08-Jan-18 20:13 47.817096 -123.470665 190 15495ft 257kts
08-Jan-18 20:14 47.743883 -123.484555 190 15494ft 269kts
08-Jan-18 20:15 47.669548 -123.498703 190 15470ft 272kts
08-Jan-18 20:16 47.594174 -123.513006 190 15469ft 273kts
08-Jan-18 20:17 47.519067 -123.527221 190 15468ft 273kts
08-Jan-18 20:18 47.443756 -123.541431 190 15467ft 273kts
08-Jan-18 20:19 47.368526 -123.555588 190 15467ft 273kts
08-Jan-18 20:20 47.293685 -123.569633 190 15469ft 273kts
08-Jan-18 20:21 47.222046 -123.583035 190 15472ft 273kts
08-Jan-18 20:22 47.147014 -123.597035 190 15474ft 272kts
08-Jan-18 20:23 47.071649 -123.611060 190 15473ft 272kts
08-Jan-18 20:24 46.996837 -123.624928 190 15473ft 272kts
08-Jan-18 20:25 46.922307 -123.638716 190 15471ft 270kts
08-Jan-18 20:26 46.852133 -123.651657 189 15358ft 272kts
08-Jan-18 20:27 46.778369 -123.665237 189 15482ft 267kts
08-Jan-18 20:28 46.704632 -123.678773 189 15481ft 268kts
08-Jan-18 20:29 46.630682 -123.692302 189 15472ft 268kts
08-Jan-18 20:30 46.556882 -123.705738 189 15463ft 268kts
08-Jan-18 20:31 46.483262 -123.719159 189 15461ft 268kts
08-Jan-18 20:32 46.409437 -123.732566 189 15460ft 268kts
08-Jan-18 20:33 46.335559 -123.745942 189 15460ft 268kts
08-Jan-18 20:34 46.261855 -123.759244 189 15459ft 267kts
08-Jan-18 20:35 46.188135 -123.772518 189 15458ft 267kts
08-Jan-18 20:36 46.114199 -123.785792 189 15457ft 267kts
08-Jan-18 20:37 46.040521 -123.798983 189 15457ft 267kts
08-Jan-18 20:38 45.967060 -123.812103 189 15456ft 267kts
08-Jan-18 20:39 45.894240 -123.825071 189 15461ft 267kts
08-Jan-18 20:40 45.820876 -123.838102 189 15474ft 268kts
08-Jan-18 20:41 45.747109 -123.851470 186 15620ft 269kts
08-Jan-18 20:42 45.668576 -123.865082 186 15727ft 298kts
08-Jan-18 20:43 45.584607 -123.879839 186 15727ft 309kts
08-Jan-18 20:44 45.498291 -123.895003 186 15726ft 314kts
08-Jan-18 20:45 45.411845 -123.910143 186 15727ft 315kts
08-Jan-18 20:46 45.325221 -123.925237 186 15727ft 315kts
08-Jan-18 20:47 45.238144 -123.940397 186 15726ft 316kts
08-Jan-18 20:48 45.151110 -123.955501 186 15726ft 316kts
08-Jan-18 20:49 45.064234 -123.970547 186 15727ft 315kts
08-Jan-18 20:50 44.977159 -123.985520 186 15725ft 316kts
08-Jan-18 20:51 44.890818 -124.000358 186 15725ft 316kts
08-Jan-18 20:52 44.804405 -124.015116 186 15519ft 313kts
08-Jan-18 20:53 44.722829 -124.029152 185 14415ft 280kts
08-Jan-18 20:54 44.648423 -124.041860 185 13444ft 274kts
08-Jan-18 20:55 44.571554 -124.054863 186 12486ft 283kts
08-Jan-18 20:56 44.493527 -124.068119 186 11521ft 284kts
08-Jan-18 20:57 44.415227 -124.081324 186 10551ft 283kts
08-Jan-18 20:58 44.337577 -124.094415 186 9584ft 281kts
08-Jan-18 20:59 44.260393 -124.107391 186 8615ft 279kts
08-Jan-18 21:00 44.183839 -124.120226 186 7655ft 278kts
08-Jan-18 21:01 44.107151 -124.133048 185 6687ft 277kts
08-Jan-18 21:02 44.031117 -124.145745 186 5722ft 274kts
08-Jan-18 21:03 43.956006 -124.158205 185 4756ft 270kts
08-Jan-18 21:04 43.882991 -124.170349 185 3794ft 264kts
08-Jan-18 21:05 43.811617 -124.182168 185 3245ft 246kts
08-Jan-18 21:06 43.748143 -124.192689 185 3244ft 215kts
08-Jan-18 21:07 43.690947 -124.202123 185 3247ft 200kts
08-Jan-18 21:08 43.636602 -124.211084 184 3249ft 194kts
08-Jan-18 21:09 43.583563 -124.219754 185 3249ft 191kts
08-Jan-18 21:10 43.533223 -124.236487 207 2901ft 188kts
08-Jan-18 21:11 43.488470 -124.271534 204 1803ft 173kts
08-Jan-18 21:12 43.451207 -124.268708 158 714ft 118kts
08-Jan-18 21:13 43.422469 -124.248445 146 98ft 113kts
08-Jan-18 21:14 43.409718 -124.238152 167 10ft 9kts
08-Jan-18 21:15 43.408993 -124.238652 258 12ft 5kts
08-Jan-18 21:16 43.411633 -124.241087 329 17ft 12kts
08-Jan-18 21:17 43.414905 -124.243722 329 20ft 14kts
08-Jan-18 21:18 43.415192 -124.245080 150 22ft 0kts

Navigation Log

Ident Type
Flight plan parsing failed, navigation log unavailable